createdAt,value
2022-12-03T00:00:19.144Z,-1.28
2022-12-03T00:02:46.237Z,-1.18
2022-12-03T00:05:13.617Z,-1.25
2022-12-03T00:07:40.959Z,-1.28
2022-12-03T00:10:12.898Z,-1.30
2022-12-03T00:12:39.931Z,-1.30
2022-12-03T00:15:10.085Z,-1.35
2022-12-03T00:17:37.753Z,-1.34
2022-12-03T00:20:11.675Z,-1.30
2022-12-03T00:22:38.730Z,-1.31
2022-12-03T00:25:06.937Z,-1.26
2022-12-03T00:27:33.911Z,-1.28
2022-12-03T00:30:01.220Z,-1.37
2022-12-03T00:32:28.319Z,-1.36
2022-12-03T00:34:55.744Z,-1.28
2022-12-03T00:37:23.016Z,-1.40
2022-12-03T00:39:53.081Z,-1.33
2022-12-03T00:42:20.161Z,-1.27
2022-12-03T00:44:47.509Z,-1.36
2022-12-03T00:47:15.095Z,-1.36
2022-12-03T00:49:42.510Z,-1.23
2022-12-03T00:52:09.905Z,-1.36
2022-12-03T00:54:53.998Z,-1.38
2022-12-03T00:57:21.201Z,-1.32
2022-12-03T00:59:50.918Z,-1.37
2022-12-03T01:02:44.254Z,-1.30
2022-12-03T01:05:11.462Z,-1.39
2022-12-03T01:07:38.883Z,-1.44
2022-12-03T01:10:15.896Z,-1.29
2022-12-03T01:12:42.969Z,-1.32
2022-12-03T01:15:13.020Z,-1.36
2022-12-03T01:17:40.216Z,-1.34
2022-12-03T01:20:10.407Z,-1.35
2022-12-03T01:22:39.455Z,-1.40
2022-12-03T01:25:10.256Z,-1.37
2022-12-03T01:28:02.344Z,-1.48
2022-12-03T01:31:05.847Z,-1.50
2022-12-03T01:33:32.873Z,-1.41
2022-12-03T01:36:07.592Z,-1.35
2022-12-03T01:38:35.449Z,-1.38
2022-12-03T01:41:18.917Z,-1.32
2022-12-03T01:43:46.711Z,-1.38
2022-12-03T01:46:22.889Z,-1.31
2022-12-03T01:48:59.278Z,-1.41
2022-12-03T01:51:30.516Z,-1.45
2022-12-03T01:54:00.510Z,-1.45
2022-12-03T01:56:28.065Z,-1.41
2022-12-03T01:58:55.079Z,-1.42
2022-12-03T02:01:22.210Z,-1.45
2022-12-03T02:03:49.585Z,-1.44
2022-12-03T02:06:33.246Z,-1.42
2022-12-03T02:09:00.902Z,-1.38
2022-12-03T02:11:36.885Z,-1.41
2022-12-03T02:14:14.021Z,-1.36
2022-12-03T02:16:42.761Z,-1.43
2022-12-03T02:19:27.853Z,-1.40
2022-12-03T02:22:33.104Z,-1.39
2022-12-03T02:25:19.431Z,-1.37
2022-12-03T02:27:48.325Z,-1.45
2022-12-03T02:30:21.036Z,-1.46
2022-12-03T02:32:49.632Z,-1.54
2022-12-03T02:35:37.322Z,-1.52
2022-12-03T02:38:28.023Z,-1.39
2022-12-03T02:41:01.272Z,-1.40
2022-12-03T02:43:28.662Z,-1.43
2022-12-03T02:45:59.952Z,-1.41
2022-12-03T02:48:34.741Z,-1.39
2022-12-03T02:51:07.183Z,-1.33
2022-12-03T02:53:44.963Z,-1.46
2022-12-03T02:56:22.351Z,-1.40
2022-12-03T02:59:01.225Z,-1.39
2022-12-03T03:01:28.551Z,-1.33
2022-12-03T03:03:59.455Z,-1.41
2022-12-03T03:06:26.711Z,-1.39
2022-12-03T03:08:57.451Z,-1.34
2022-12-03T03:11:25.060Z,-1.45
2022-12-03T03:16:55.949Z,-1.42
2022-12-03T03:19:30.850Z,-1.52
2022-12-03T03:21:58.151Z,-1.38
2022-12-03T03:24:32.314Z,-1.34
2022-12-03T03:27:13.112Z,-1.45
2022-12-03T03:29:43.278Z,-1.48
2022-12-03T03:32:10.383Z,-1.45
2022-12-03T03:34:37.703Z,-1.44
2022-12-03T03:37:23.436Z,-1.37
2022-12-03T03:39:53.911Z,-1.43
2022-12-03T03:42:21.111Z,-1.42
2022-12-03T03:44:50.668Z,-1.35
2022-12-03T03:47:20.474Z,-1.45
2022-12-03T03:49:50.546Z,-1.35
2022-12-03T03:52:22.272Z,-1.30
2022-12-03T03:54:49.552Z,-1.43
2022-12-03T03:57:19.473Z,-1.38
2022-12-03T03:59:46.845Z,-1.42
2022-12-03T04:02:24.615Z,-1.49
2022-12-03T04:04:52.898Z,-1.45
2022-12-03T04:07:20.672Z,-1.43
2022-12-03T04:09:47.633Z,-1.58
2022-12-03T04:12:40.834Z,-1.39
2022-12-03T04:15:09.235Z,-1.40
2022-12-03T04:17:37.001Z,-1.41
2022-12-03T04:20:05.614Z,-1.41
2022-12-03T04:22:41.706Z,-1.50
2022-12-03T04:25:41.697Z,-1.43
2022-12-03T04:28:28.228Z,-1.42
2022-12-03T04:30:58.589Z,-1.42
2022-12-03T04:33:44.560Z,-1.50
2022-12-03T04:36:11.616Z,-1.46
2022-12-03T04:38:52.153Z,-1.51
2022-12-03T04:41:25.073Z,-1.48
2022-12-03T04:44:10.607Z,-1.44
2022-12-03T04:46:37.817Z,-1.42
2022-12-03T04:49:04.957Z,-1.45
2022-12-03T04:51:34.944Z,-1.48
2022-12-03T04:54:05.968Z,-1.48
2022-12-03T04:56:33.101Z,-1.58
2022-12-03T04:59:00.132Z,-1.54
2022-12-03T05:01:30.416Z,-1.48
2022-12-03T05:03:58.006Z,-1.49
2022-12-03T05:06:25.055Z,-1.42
2022-12-03T05:08:52.444Z,-1.43
2022-12-03T05:11:19.506Z,-1.49
2022-12-03T05:13:46.476Z,-1.47
2022-12-03T05:16:13.602Z,-1.43
2022-12-03T05:18:40.723Z,-1.45
2022-12-03T05:21:07.831Z,-1.47
2022-12-03T05:23:34.824Z,-1.45
2022-12-03T05:26:01.788Z,-1.39
2022-12-03T05:28:29.082Z,-1.41
2022-12-03T05:30:58.693Z,-1.48
2022-12-03T05:33:25.969Z,-1.51
2022-12-03T05:35:53.104Z,-1.44
2022-12-03T05:38:20.767Z,-1.47
2022-12-03T05:40:47.967Z,-1.46
2022-12-03T05:43:14.945Z,-1.45
2022-12-03T05:45:45.992Z,-1.43
2022-12-03T05:48:16.771Z,-1.37
2022-12-03T05:50:45.945Z,-1.44
2022-12-03T05:53:15.040Z,-1.40
2022-12-03T05:55:42.455Z,-1.42
2022-12-03T05:58:09.863Z,-1.55
2022-12-03T06:00:42.422Z,-1.53
2022-12-03T06:03:10.829Z,-1.44
2022-12-03T06:05:38.442Z,-1.46
2022-12-03T06:08:07.587Z,-1.63
2022-12-03T06:10:34.842Z,-1.52
2022-12-03T06:13:03.153Z,-1.54
2022-12-03T06:15:30.461Z,-1.51
2022-12-03T06:17:58.144Z,-1.55
2022-12-03T06:20:25.444Z,-1.65
2022-12-03T06:22:52.427Z,-1.54
2022-12-03T06:25:19.464Z,-1.59
2022-12-03T06:27:46.533Z,-1.56
2022-12-03T06:30:14.832Z,-1.53
2022-12-03T06:32:42.023Z,-1.54
2022-12-03T06:35:09.737Z,-1.59
2022-12-03T06:37:36.816Z,-1.65
2022-12-03T06:40:04.696Z,-1.59
2022-12-03T06:42:31.661Z,-1.54
2022-12-03T06:45:01.755Z,-1.52
2022-12-03T06:47:28.711Z,-1.63
2022-12-03T06:49:55.657Z,-1.62
2022-12-03T06:52:22.752Z,-1.62
2022-12-03T06:54:49.716Z,-1.63
2022-12-03T06:57:19.394Z,-1.70
2022-12-03T06:59:46.357Z,-1.69
2022-12-03T07:02:13.473Z,-1.74
2022-12-03T07:04:56.072Z,-1.81
2022-12-03T07:07:23.467Z,-1.70
2022-12-03T07:09:51.026Z,-1.69
2022-12-03T07:12:18.069Z,-1.74
2022-12-03T07:14:45.085Z,-1.78
2022-12-03T07:17:12.044Z,-1.74
2022-12-03T07:19:39.663Z,-1.78
2022-12-03T07:22:06.832Z,-1.75
2022-12-03T07:24:33.957Z,-1.73
2022-12-03T07:27:01.122Z,-1.90
2022-12-03T07:29:28.221Z,-1.79
2022-12-03T07:31:55.281Z,-1.82
2022-12-03T07:34:22.348Z,-1.79
2022-12-03T07:36:49.501Z,-1.76
2022-12-03T07:39:16.555Z,-1.87
2022-12-03T07:41:43.696Z,-1.87
2022-12-03T07:44:14.273Z,-1.76
2022-12-03T07:47:08.586Z,-1.85
2022-12-03T07:49:35.587Z,-1.70
2022-12-03T07:52:02.607Z,-1.71
2022-12-03T07:54:29.573Z,-1.77
2022-12-03T07:57:01.110Z,-1.72
2022-12-03T07:59:29.515Z,-1.91
2022-12-03T08:01:56.697Z,-1.67
2022-12-03T08:04:23.765Z,-1.84
2022-12-03T08:06:50.743Z,-1.92
2022-12-03T08:09:17.712Z,-1.89
2022-12-03T08:11:48.558Z,-1.91
2022-12-03T08:14:19.613Z,-1.73
2022-12-03T08:16:48.273Z,-1.75
2022-12-03T08:19:18.328Z,-1.73
2022-12-03T08:21:45.541Z,-1.67
2022-12-03T08:24:21.581Z,-1.70
2022-12-03T08:26:49.831Z,-1.61
2022-12-03T08:29:20.358Z,-1.63
2022-12-03T08:31:55.406Z,-1.67
2022-12-03T08:34:28.159Z,-1.55
2022-12-03T08:37:19.592Z,-1.58
2022-12-03T08:39:50.606Z,-1.73
2022-12-03T08:42:48.160Z,-1.67
2022-12-03T08:45:34.949Z,-1.62
2022-12-03T08:48:33.032Z,-1.69
2022-12-03T08:51:26.526Z,-1.77
2022-12-03T08:54:04.525Z,-1.64
2022-12-03T08:56:35.972Z,-1.56
2022-12-03T08:59:30.897Z,-1.52
2022-12-03T09:01:59.717Z,-1.62
2022-12-03T09:04:45.754Z,-1.50
2022-12-03T09:07:12.833Z,-1.62
2022-12-03T09:09:40.180Z,-1.64
2022-12-03T09:12:07.397Z,-1.50
2022-12-03T09:14:34.542Z,-1.46
2022-12-03T09:17:01.674Z,-1.49
2022-12-03T09:19:31.064Z,-1.52
2022-12-03T09:21:58.176Z,-1.44
2022-12-03T09:24:25.245Z,-1.37
2022-12-03T09:26:52.306Z,-1.38
2022-12-03T09:29:19.387Z,-1.34
2022-12-03T09:31:46.572Z,-1.30
2022-12-03T09:34:13.685Z,-1.31
2022-12-03T09:36:40.913Z,-1.34
2022-12-03T09:39:07.914Z,-1.25
2022-12-03T09:41:37.468Z,-1.31
2022-12-03T09:44:05.770Z,-1.06
2022-12-03T09:46:35.782Z,-1.13
2022-12-03T09:49:10.777Z,-1.10
2022-12-03T09:51:41.274Z,-1.07
2022-12-03T09:54:10.212Z,-1.03
2022-12-03T09:56:38.308Z,-1.02
2022-12-03T09:59:15.173Z,-0.94
2022-12-03T10:01:42.334Z,-0.90
2022-12-03T10:04:09.836Z,-0.62
2022-12-03T10:06:43.980Z,-0.82
2022-12-03T10:09:17.488Z,-0.83
2022-12-03T10:11:44.771Z,-0.76
2022-12-03T10:14:14.647Z,-0.90
2022-12-03T10:16:42.274Z,-0.89
2022-12-03T10:19:44.937Z,-0.87
2022-12-03T10:22:11.963Z,-0.39
2022-12-03T10:24:39.196Z,-0.74
2022-12-03T10:27:30.300Z,-0.82
2022-12-03T10:30:01.171Z,-0.84
2022-12-03T10:32:50.923Z,-0.80
2022-12-03T10:35:45.459Z,-0.87
2022-12-03T10:38:18.117Z,-0.92
2022-12-03T10:40:45.986Z,-0.66
2022-12-03T10:43:25.735Z,-0.70
2022-12-03T10:46:16.796Z,-0.80
2022-12-03T10:48:44.071Z,-0.76
2022-12-03T10:51:22.722Z,-0.77
2022-12-03T10:53:50.595Z,-0.87
2022-12-03T10:56:36.534Z,-0.79
2022-12-03T10:59:03.809Z,-0.91
2022-12-03T11:01:32.257Z,-0.90
2022-12-03T11:04:04.993Z,-0.78
2022-12-03T11:06:34.820Z,-0.60
2022-12-03T11:09:08.771Z,-0.91
2022-12-03T11:11:37.632Z,-0.94
2022-12-03T11:14:06.135Z,-0.97
2022-12-03T11:16:42.904Z,-0.58
2022-12-03T11:19:12.926Z,-0.73
2022-12-03T11:22:05.940Z,-0.87
2022-12-03T11:24:39.068Z,-0.77
2022-12-03T11:27:12.918Z,-0.77
2022-12-03T11:29:54.500Z,-0.78
2022-12-03T11:32:40.359Z,-0.58
2022-12-03T11:35:25.169Z,-0.72
2022-12-03T11:37:52.560Z,-0.79
2022-12-03T11:40:19.304Z,-0.67
2022-12-03T11:42:48.593Z,-0.87
2022-12-03T11:45:36.543Z,-0.85
2022-12-03T11:48:14.833Z,-0.73
2022-12-03T11:50:53.125Z,-0.71
2022-12-03T11:53:27.263Z,-0.90
2022-12-03T11:56:10.268Z,-0.83
2022-12-03T11:58:42.552Z,-0.88
2022-12-03T12:01:09.984Z,-0.62
2022-12-03T12:03:50.721Z,-0.76
2022-12-03T12:06:21.309Z,-0.55
2022-12-03T12:08:51.099Z,-0.68
2022-12-03T12:11:43.561Z,-0.74
2022-12-03T12:14:13.697Z,-0.84
2022-12-03T12:16:53.619Z,-0.67
2022-12-03T12:19:41.219Z,-0.55
2022-12-03T12:22:24.921Z,-0.68
2022-12-03T12:25:03.316Z,-0.67
2022-12-03T12:27:39.256Z,-0.74
2022-12-03T12:30:19.880Z,-0.63
2022-12-03T12:33:16.432Z,-0.62
2022-12-03T12:35:43.437Z,-0.78
2022-12-03T12:38:24.192Z,-0.82
2022-12-03T12:40:51.324Z,-0.76
2022-12-03T12:43:30.827Z,-0.79
2022-12-03T12:46:38.670Z,-0.77
2022-12-03T12:48:59.553Z,-0.66
2022-12-03T12:51:27.060Z,-0.49
2022-12-03T12:53:54.093Z,-0.78
2022-12-03T12:56:31.945Z,-0.84
2022-12-03T12:59:16.251Z,-0.75
2022-12-03T13:01:46.345Z,-0.95
2022-12-03T13:04:24.028Z,-0.79
2022-12-03T13:06:54.664Z,-0.77
2022-12-03T13:09:26.026Z,-0.96
2022-12-03T13:12:03.793Z,-0.94
2022-12-03T13:14:36.533Z,-0.92
2022-12-03T13:17:24.208Z,-0.93
2022-12-03T13:20:00.432Z,-0.95
2022-12-03T13:22:32.301Z,-0.85
2022-12-03T13:25:58.170Z,-0.90
2022-12-03T13:28:24.348Z,-1.08
2022-12-03T13:30:51.525Z,-1.11
2022-12-03T13:33:31.147Z,-1.08
2022-12-03T13:35:58.277Z,-1.13
2022-12-03T13:38:25.840Z,-0.98
2022-12-03T13:41:02.517Z,-0.96
2022-12-03T13:43:32.764Z,-1.08
2022-12-03T13:46:00.516Z,-1.02
2022-12-03T13:48:36.643Z,-0.96
2022-12-03T13:51:32.795Z,-0.87
2022-12-03T13:54:00.472Z,-1.09
2022-12-03T13:56:32.647Z,-1.01
2022-12-03T13:59:01.649Z,-0.98
2022-12-03T14:01:29.781Z,-1.17
2022-12-03T14:03:57.220Z,-0.99
2022-12-03T14:06:24.601Z,-0.92
2022-12-03T14:08:51.635Z,-1.14
2022-12-03T14:11:37.159Z,-0.97
2022-12-03T14:14:04.205Z,-1.13
2022-12-03T14:16:31.461Z,-1.11
2022-12-03T14:18:58.480Z,-0.99
2022-12-03T14:21:26.054Z,-1.19
2022-12-03T14:23:53.070Z,-1.20
2022-12-03T14:26:20.049Z,-1.11
2022-12-03T14:28:47.004Z,-1.02
2022-12-03T14:31:14.058Z,-1.10
2022-12-03T14:33:41.093Z,-1.06
2022-12-03T14:36:08.581Z,-1.16
2022-12-03T14:38:35.555Z,-1.16
2022-12-03T14:41:02.711Z,-1.25
2022-12-03T14:43:29.940Z,-1.32
2022-12-03T14:45:56.948Z,-1.17
2022-12-03T14:48:23.958Z,-1.15
2022-12-03T14:50:50.925Z,-1.15
2022-12-03T14:53:20.521Z,-1.14
2022-12-03T14:55:50.213Z,-1.20
2022-12-03T14:58:17.497Z,-1.15
2022-12-03T15:00:44.449Z,-1.14
2022-12-03T15:03:11.456Z,-1.18
2022-12-03T15:05:38.534Z,-1.13
2022-12-03T15:08:05.697Z,-1.01
2022-12-03T15:10:35.673Z,-1.16
2022-12-03T15:13:02.654Z,-1.26
2022-12-03T15:15:29.786Z,-1.09
2022-12-03T15:17:56.760Z,-1.10
2022-12-03T15:20:23.747Z,-1.07
2022-12-03T15:22:50.744Z,-1.09
2022-12-03T15:25:24.440Z,-1.10
2022-12-03T15:27:51.755Z,-1.08
2022-12-03T15:30:20.580Z,-1.03
2022-12-03T15:32:47.615Z,-1.04
2022-12-03T15:35:18.346Z,-1.00
2022-12-03T15:37:45.933Z,-0.96
2022-12-03T15:40:13.849Z,-1.04
2022-12-03T15:42:40.996Z,-0.95
2022-12-03T15:45:14.821Z,-1.02
2022-12-03T15:47:42.246Z,-1.02
2022-12-03T15:50:10.216Z,-1.06
2022-12-03T15:52:37.298Z,-1.01
2022-12-03T15:55:05.049Z,-0.96
2022-12-03T15:57:32.144Z,-0.86
2022-12-03T15:59:59.215Z,-0.98
2022-12-03T16:02:26.940Z,-0.95
2022-12-03T16:04:54.002Z,-1.00
2022-12-03T16:07:21.046Z,-0.93
2022-12-03T16:09:48.192Z,-0.95
2022-12-03T16:12:15.449Z,-1.04
2022-12-03T16:14:42.449Z,-1.11
2022-12-03T16:17:09.513Z,-1.02
2022-12-03T16:19:36.606Z,-1.08
2022-12-03T16:22:03.864Z,-1.04
2022-12-03T16:24:30.838Z,-1.03
2022-12-03T16:26:57.829Z,-0.97
2022-12-03T16:29:24.900Z,-0.98
2022-12-03T16:31:52.223Z,-0.99
2022-12-03T16:34:19.285Z,-0.91
2022-12-03T16:36:46.424Z,-0.86
2022-12-03T16:39:13.772Z,-0.95
2022-12-03T16:41:40.747Z,-1.01
2022-12-03T16:44:08.198Z,-1.02
2022-12-03T16:46:35.233Z,-1.00
2022-12-03T16:49:03.767Z,-1.07
2022-12-03T16:51:30.817Z,-0.88
2022-12-03T16:53:57.770Z,-0.96
2022-12-03T16:56:24.747Z,-0.95
2022-12-03T16:58:51.744Z,-0.91
2022-12-03T17:01:18.881Z,-0.86
2022-12-03T17:03:45.980Z,-1.03
2022-12-03T17:06:13.132Z,-0.96
2022-12-03T17:08:44.399Z,-0.85
2022-12-03T17:11:14.482Z,-0.89
2022-12-03T17:13:41.788Z,-0.96
2022-12-03T17:16:09.123Z,-0.88
2022-12-03T17:18:36.140Z,-0.91
2022-12-03T17:21:03.160Z,-0.75
2022-12-03T17:23:30.151Z,-0.89
2022-12-03T17:25:57.186Z,-0.70
2022-12-03T17:28:24.211Z,-0.76
2022-12-03T17:30:51.269Z,-0.73
2022-12-03T17:33:18.341Z,-0.77
2022-12-03T17:35:46.502Z,-0.71
2022-12-03T17:38:13.543Z,-0.83
2022-12-03T17:40:43.388Z,-0.75
2022-12-03T17:43:10.341Z,-0.76
2022-12-03T17:45:37.359Z,-0.80
2022-12-03T17:48:04.733Z,-0.90
2022-12-03T17:50:31.722Z,-0.86
2022-12-03T17:52:58.724Z,-0.89
2022-12-03T17:55:34.651Z,-0.85
2022-12-03T17:58:05.425Z,-0.90
2022-12-03T18:00:33.264Z,-0.76
2022-12-03T18:03:00.432Z,-0.91
2022-12-03T18:05:27.442Z,-0.73
2022-12-03T18:07:54.501Z,-0.76
2022-12-03T18:10:22.574Z,-0.89
2022-12-03T18:12:49.557Z,-0.88
2022-12-03T18:15:16.649Z,-0.92
2022-12-03T18:17:43.643Z,-0.82
2022-12-03T18:20:10.747Z,-0.85
2022-12-03T18:22:38.048Z,-0.83
2022-12-03T18:25:06.662Z,-0.65
2022-12-03T18:27:34.118Z,-0.80
2022-12-03T18:30:01.207Z,-0.82
2022-12-03T18:32:29.700Z,-0.82
2022-12-03T18:34:58.152Z,-0.79
2022-12-03T18:37:29.175Z,-0.83
2022-12-03T18:39:57.716Z,-0.83
2022-12-03T18:42:25.981Z,-0.82
2022-12-03T18:44:56.208Z,-0.84
2022-12-03T18:47:28.844Z,-0.76
2022-12-03T18:49:57.048Z,-0.89
2022-12-03T18:52:25.061Z,-0.82
2022-12-03T18:54:52.871Z,-0.76
2022-12-03T18:57:19.933Z,-0.73
2022-12-03T18:59:46.951Z,-0.66
2022-12-03T19:05:08.901Z,-0.76
2022-12-03T19:07:36.029Z,-0.63
2022-12-03T19:10:03.766Z,-0.85
2022-12-03T19:12:31.164Z,-0.76
2022-12-03T19:14:58.202Z,-0.75
2022-12-03T19:17:26.990Z,-0.67
2022-12-03T19:19:54.972Z,-0.76
2022-12-03T19:22:23.318Z,-0.70
2022-12-03T19:24:50.801Z,-0.67
2022-12-03T19:27:18.011Z,-0.66
2022-12-03T19:29:48.745Z,-0.72
2022-12-03T19:32:15.750Z,-0.66
2022-12-03T19:34:42.784Z,-0.67
2022-12-03T19:37:09.790Z,-0.70
2022-12-03T19:39:36.841Z,-0.75
2022-12-03T19:42:04.163Z,-0.70
2022-12-03T19:44:31.249Z,-0.65
2022-12-03T19:46:58.229Z,-0.69
2022-12-03T19:49:25.297Z,-0.63
2022-12-03T19:51:52.386Z,-0.68
2022-12-03T19:54:19.618Z,-0.54
2022-12-03T19:56:46.642Z,-0.64
2022-12-03T19:59:14.219Z,-0.62
2022-12-03T20:01:43.226Z,-0.49
2022-12-03T20:04:11.941Z,-0.46
2022-12-03T20:06:41.794Z,-0.63
2022-12-03T20:09:17.527Z,-0.54
2022-12-03T20:11:45.779Z,-0.59
2022-12-03T20:14:16.774Z,-0.56
2022-12-03T20:16:45.252Z,-0.52
2022-12-03T20:19:16.089Z,-0.63
2022-12-03T20:21:44.836Z,-0.62
2022-12-03T20:24:17.088Z,-0.58
2022-12-03T20:26:44.447Z,-0.53
2022-12-03T20:29:11.916Z,-0.61
2022-12-03T20:31:39.164Z,-0.56
2022-12-03T20:34:07.083Z,-0.62
2022-12-03T20:36:37.020Z,-0.61
2022-12-03T20:39:07.924Z,-0.68
2022-12-03T20:41:36.854Z,-0.61
2022-12-03T20:44:07.291Z,-0.58
2022-12-03T20:46:34.807Z,-0.57
2022-12-03T20:49:01.955Z,-0.50
2022-12-03T20:51:31.588Z,-0.55
2022-12-03T20:54:00.674Z,-0.57
2022-12-03T20:56:35.618Z,-0.49
2022-12-03T20:59:07.545Z,-0.55
2022-12-03T21:01:36.018Z,-0.57
2022-12-03T21:04:04.653Z,-0.58
2022-12-03T21:06:34.183Z,-0.62
2022-12-03T21:09:02.481Z,-0.38
2022-12-03T21:11:32.066Z,-0.51
2022-12-03T21:14:00.620Z,-0.56
2022-12-03T21:19:20.917Z,-0.52
2022-12-03T21:21:48.537Z,-0.50
2022-12-03T21:24:15.598Z,-0.51
2022-12-03T21:26:42.718Z,-0.52
2022-12-03T21:29:09.824Z,-0.58
2022-12-03T21:31:38.345Z,-0.56
2022-12-03T21:34:05.411Z,-0.55
2022-12-03T21:36:32.516Z,-0.56
2022-12-03T21:38:59.606Z,-0.46
2022-12-03T21:41:26.824Z,-0.56
2022-12-03T21:43:53.889Z,-0.53
2022-12-03T21:47:10.159Z,-0.54
2022-12-03T21:49:08.104Z,-0.54
2022-12-03T21:51:35.195Z,-0.51
2022-12-03T21:54:02.353Z,-0.55
2022-12-03T21:56:31.977Z,-0.59
2022-12-03T21:58:59.004Z,-0.50
2022-12-03T22:01:26.315Z,-0.49
2022-12-03T22:03:53.469Z,-0.56
2022-12-03T22:06:21.232Z,-0.46
2022-12-03T22:08:49.244Z,-0.48
2022-12-03T22:11:23.578Z,-0.59
2022-12-03T22:13:51.374Z,-0.45
2022-12-03T22:16:21.476Z,-0.41
2022-12-03T22:18:48.854Z,-0.39
2022-12-03T22:21:20.345Z,-0.58
2022-12-03T22:23:47.454Z,-0.52
2022-12-03T22:26:18.409Z,-0.45
2022-12-03T22:28:50.078Z,-0.47
2022-12-03T22:31:18.685Z,-0.52
2022-12-03T22:33:48.289Z,-0.50
2022-12-03T22:36:21.647Z,-0.49
2022-12-03T22:38:50.817Z,-0.51
2022-12-03T22:41:20.268Z,-0.51
2022-12-03T22:43:48.621Z,-0.47
2022-12-03T22:46:17.192Z,-0.53
2022-12-03T22:48:46.620Z,-0.55
2022-12-03T22:51:24.545Z,-0.58
2022-12-03T22:53:58.163Z,-0.53
2022-12-03T22:56:27.671Z,-0.51
2022-12-03T22:58:55.582Z,-0.49
2022-12-03T23:01:31.408Z,-0.45
2022-12-03T23:03:59.210Z,-0.46
2022-12-03T23:06:27.622Z,-0.44
2022-12-03T23:08:55.648Z,-0.39
2022-12-03T23:11:22.843Z,-0.48
2022-12-03T23:13:50.368Z,-0.45
2022-12-03T23:16:26.688Z,-0.45
2022-12-03T23:18:54.321Z,-0.32
2022-12-03T23:21:29.775Z,-0.45
2022-12-03T23:23:59.909Z,-0.41
2022-12-03T23:26:28.275Z,-0.33
2022-12-03T23:28:55.556Z,-0.41
2022-12-03T23:31:31.299Z,-0.34
2022-12-03T23:33:59.271Z,-0.47
2022-12-03T23:36:30.126Z,-0.54
2022-12-03T23:38:57.325Z,-0.50
2022-12-03T23:41:25.214Z,-0.46
2022-12-03T23:43:52.875Z,-0.56
2022-12-03T23:46:27.326Z,-0.51
2022-12-03T23:48:55.037Z,-0.48
2022-12-03T23:51:24.585Z,-0.59
2022-12-03T23:53:54.087Z,-0.55
2022-12-03T23:56:27.579Z,-0.54
2022-12-03T23:58:54.763Z,-0.48
